createdAt,value
2022-09-05T00:01:55.932Z,70752.16
2022-09-05T00:04:38.879Z,70742.78
2022-09-05T00:07:38.816Z,70735.63
2022-09-05T00:11:08.574Z,70725.22
2022-09-05T00:14:03.315Z,70776.81
2022-09-05T00:16:55.470Z,70725.66
2022-09-05T00:24:20.672Z,70709.63
2022-09-05T00:24:33.060Z,70744.59
2022-09-05T00:26:18.232Z,70754.63
2022-09-05T00:31:07.809Z,70749.94
2022-09-05T00:32:58.574Z,70719.19
2022-09-05T00:35:41.094Z,70722.09
2022-09-05T00:38:27.522Z,70736.34
2022-09-05T00:41:09.873Z,70773.69
2022-09-05T00:43:50.073Z,70678.88
2022-09-05T00:46:38.662Z,70723.34
2022-09-05T00:49:30.817Z,70755.66
2022-09-05T00:52:13.098Z,70683.81
2022-09-05T00:55:07.641Z,70698.19
2022-09-05T00:58:11.178Z,70676.38
2022-09-05T01:00:45.448Z,70640.88
2022-09-05T01:03:34.705Z,70645.91
2022-09-05T01:06:33.061Z,70703.91
2022-09-05T01:09:26.236Z,70679.88
2022-09-05T01:12:05.472Z,70706.47
2022-09-05T01:15:13.489Z,70665.00
2022-09-05T01:18:08.089Z,70662.19
2022-09-05T01:21:19.893Z,70661.16
2022-09-05T01:24:17.358Z,70617.16
2022-09-05T01:28:08.383Z,70618.75
2022-09-05T01:31:15.327Z,70589.94
2022-09-05T01:34:03.487Z,70639.41
2022-09-05T01:37:32.751Z,70659.78
2022-09-05T01:40:22.557Z,70658.88
2022-09-05T01:43:04.145Z,70688.44
2022-09-05T01:45:54.307Z,70624.19
2022-09-05T01:48:24.112Z,70664.19
2022-09-05T01:51:34.799Z,70661.31
2022-09-05T01:54:26.257Z,70666.69
2022-09-05T01:57:19.636Z,70622.25
2022-09-05T02:00:12.509Z,70600.44
2022-09-05T02:03:35.309Z,70630.59
2022-09-05T02:06:33.877Z,70635.06
2022-09-05T02:09:43.029Z,70592.69
2022-09-05T02:12:15.725Z,70627.63
2022-09-05T02:14:51.501Z,70606.41
2022-09-05T02:17:50.823Z,70643.69
2022-09-05T02:20:34.698Z,70647.84
2022-09-05T02:23:37.545Z,70644.31
2022-09-05T02:26:29.950Z,70637.72
2022-09-05T02:29:07.184Z,70625.88
2022-09-05T02:31:43.677Z,70652.44
2022-09-05T02:34:38.194Z,70627.91
2022-09-05T02:38:58.101Z,70682.09
2022-09-05T02:45:13.250Z,70671.75
2022-09-05T02:45:15.182Z,70610.84
2022-09-05T02:47:42.326Z,70602.88
2022-09-05T02:55:30.326Z,70653.75
2022-09-05T02:57:40.444Z,70622.75
2022-09-05T02:57:43.479Z,70636.09
2022-09-05T03:00:05.793Z,70620.19
2022-09-05T03:03:35.044Z,70620.56
2022-09-05T03:06:43.470Z,70597.75
2022-09-05T03:09:26.995Z,70631.19
2022-09-05T03:12:39.865Z,70607.78
2022-09-05T03:15:34.622Z,70625.78
2022-09-05T03:18:20.273Z,70584.59
2022-09-05T03:21:29.293Z,70627.84
2022-09-05T03:24:17.538Z,70603.84
2022-09-05T03:27:34.108Z,70577.00
2022-09-05T03:30:08.869Z,70635.88
2022-09-05T03:33:15.369Z,70617.28
2022-09-05T03:36:22.688Z,70604.91
2022-09-05T03:39:27.640Z,70579.44
2022-09-05T03:42:42.686Z,70635.66
2022-09-05T03:45:50.148Z,70576.84
2022-09-05T03:48:44.255Z,70548.22
2022-09-05T03:57:11.853Z,70569.88
2022-09-05T03:57:17.818Z,70557.78
2022-09-05T03:58:56.769Z,70572.91
2022-09-05T04:02:29.082Z,70569.13
2022-09-05T04:08:19.246Z,70587.81
2022-09-05T04:08:24.609Z,70552.56
2022-09-05T04:11:00.314Z,70564.38
2022-09-05T04:13:39.159Z,70567.31
2022-09-05T04:16:19.402Z,70587.84
2022-09-05T04:18:56.283Z,70556.97
2022-09-05T04:21:28.126Z,70589.50
2022-09-05T04:24:09.740Z,70584.81
2022-09-05T04:26:50.141Z,70544.59
2022-09-05T04:29:39.007Z,70617.38
2022-09-05T04:32:44.323Z,70591.34
2022-09-05T04:35:32.182Z,70627.13
2022-09-05T04:38:12.332Z,70638.03
2022-09-05T04:41:11.966Z,70603.09
2022-09-05T04:44:10.790Z,70607.56
2022-09-05T04:46:53.739Z,70620.25
2022-09-05T04:49:42.765Z,70565.53
2022-09-05T04:52:51.930Z,70640.91
2022-09-05T04:55:38.349Z,70627.22
2022-09-05T04:58:49.404Z,70523.44
2022-09-05T05:06:03.276Z,70621.72
2022-09-05T05:06:20.305Z,70582.41
2022-09-05T05:07:51.795Z,70617.34
2022-09-05T05:14:36.682Z,70599.00
2022-09-05T05:18:01.552Z,70611.69
2022-09-05T05:18:14.372Z,70604.84
2022-09-05T05:19:48.939Z,70630.56
2022-09-05T05:22:46.910Z,70650.13
2022-09-05T05:25:14.470Z,70660.53
2022-09-05T05:27:59.846Z,70681.88
2022-09-05T05:30:32.988Z,70659.00
2022-09-05T05:33:19.174Z,70625.44
2022-09-05T05:35:50.495Z,70636.97
2022-09-05T05:38:43.055Z,70680.66
2022-09-05T05:41:37.713Z,70650.13
2022-09-05T05:44:19.328Z,70661.00
2022-09-05T05:47:09.904Z,70639.47
2022-09-05T05:49:46.588Z,70651.13
2022-09-05T05:52:41.168Z,70677.72
2022-09-05T05:55:52.688Z,70707.53
2022-09-05T05:58:51.223Z,70703.59
2022-09-05T06:01:42.567Z,70730.38
2022-09-05T06:05:04.047Z,70753.69
2022-09-05T06:10:39.043Z,70778.50
2022-09-05T06:14:58.126Z,70759.50
2022-09-05T06:15:08.911Z,70767.16
2022-09-05T06:17:28.440Z,70793.47
2022-09-05T06:22:06.238Z,70813.19
2022-09-05T06:24:13.904Z,70835.25
2022-09-05T06:27:21.053Z,70834.78
2022-09-05T06:29:55.655Z,70860.69
2022-09-05T06:32:53.899Z,70907.47
2022-09-05T06:36:04.648Z,70923.88
2022-09-05T06:38:57.622Z,70915.69
2022-09-05T06:42:42.673Z,70962.41
2022-09-05T06:45:36.509Z,70918.63
2022-09-05T06:48:45.815Z,71047.09
2022-09-05T06:51:49.832Z,71016.34
2022-09-05T06:55:15.144Z,71071.41
2022-09-05T06:58:17.520Z,71086.34
2022-09-05T07:00:53.175Z,71126.28
2022-09-05T07:03:28.703Z,71149.25
2022-09-05T07:06:44.296Z,71150.84
2022-09-05T07:09:57.386Z,71234.75
2022-09-05T07:12:50.765Z,71253.25
2022-09-05T07:16:06.011Z,71268.84
2022-09-05T07:18:43.621Z,71263.69
2022-09-05T07:21:26.232Z,71331.72
2022-09-05T07:24:10.133Z,71325.47
2022-09-05T07:26:53.602Z,71331.81
2022-09-05T07:29:40.932Z,71327.19
2022-09-05T07:32:31.870Z,71376.22
2022-09-05T07:35:04.435Z,71382.06
2022-09-05T07:37:41.747Z,71404.72
2022-09-05T07:40:24.830Z,71420.50
2022-09-05T07:43:19.221Z,71444.38
2022-09-05T07:46:12.589Z,71435.41
2022-09-05T07:48:53.454Z,71410.97
2022-09-05T07:56:46.406Z,71475.81
2022-09-05T07:57:05.035Z,71474.81
2022-09-05T07:57:32.466Z,71541.13
2022-09-05T08:00:29.680Z,71562.97
2022-09-05T08:03:12.556Z,71531.50
2022-09-05T08:05:50.388Z,71538.78
2022-09-05T08:08:28.274Z,71601.13
2022-09-05T08:11:22.663Z,71575.63
2022-09-05T08:14:40.441Z,71605.34
2022-09-05T08:16:53.662Z,71605.69
2022-09-05T08:19:38.803Z,71614.63
2022-09-05T08:22:11.496Z,71591.84
2022-09-05T08:24:49.381Z,71625.88
2022-09-05T08:27:20.926Z,71723.06
2022-09-05T08:30:26.475Z,71703.59
2022-09-05T08:33:11.894Z,71767.66
2022-09-05T08:36:00.804Z,71802.44
2022-09-05T08:38:37.409Z,71841.88
2022-09-05T08:41:15.552Z,71906.81
2022-09-05T08:46:36.064Z,71932.19
2022-09-05T08:47:44.996Z,71971.84
2022-09-05T08:50:55.055Z,72093.00
2022-09-05T08:53:46.653Z,72194.91
2022-09-05T08:56:21.333Z,72315.81
2022-09-05T08:59:32.128Z,72372.16
2022-09-05T09:02:46.460Z,72481.22
2022-09-05T09:06:14.563Z,72480.06
2022-09-05T09:09:10.703Z,72541.38
2022-09-05T09:12:23.191Z,72638.66
2022-09-05T09:15:00.847Z,72684.53
2022-09-05T09:17:46.787Z,72739.25
2022-09-05T09:20:52.939Z,72898.44
2022-09-05T09:23:40.582Z,72918.59
2022-09-05T09:26:28.234Z,72839.94
2022-09-05T09:29:08.259Z,72885.03
2022-09-05T09:32:14.309Z,72926.38
2022-09-05T09:35:20.115Z,73102.16
2022-09-05T09:38:51.765Z,73297.97
2022-09-05T09:41:45.232Z,73466.50
2022-09-05T09:45:01.508Z,73485.75
2022-09-05T09:48:13.039Z,73555.88
2022-09-05T09:51:14.202Z,73703.72
2022-09-05T09:54:16.423Z,73685.13
2022-09-05T09:57:07.935Z,73777.50
2022-09-05T10:00:04.188Z,73869.84
2022-09-05T10:05:56.018Z,73907.25
2022-09-05T10:10:51.890Z,73945.97
2022-09-05T10:10:54.447Z,73921.19
2022-09-05T10:12:40.632Z,73908.19
2022-09-05T10:15:31.526Z,73853.09
2022-09-05T10:18:29.173Z,74054.56
2022-09-05T10:21:16.138Z,73920.47
2022-09-05T10:24:21.883Z,73663.53
2022-09-05T10:27:00.976Z,73697.44
2022-09-05T10:29:58.805Z,73930.81
2022-09-05T10:35:09.843Z,74029.09
2022-09-05T10:35:43.529Z,74114.66
2022-09-05T10:38:16.240Z,74207.78
2022-09-05T10:41:20.447Z,74168.09
2022-09-05T10:43:53.795Z,74212.75
2022-09-05T10:47:08.298Z,74025.97
2022-09-05T10:49:48.101Z,74064.25
2022-09-05T10:52:31.959Z,74096.44
2022-09-05T10:55:17.370Z,74132.34
2022-09-05T10:57:54.619Z,74192.16
2022-09-05T11:02:24.440Z,74140.16
2022-09-05T11:03:47.743Z,74325.09
2022-09-05T11:06:20.914Z,74353.94
2022-09-05T11:09:26.549Z,74383.56
2022-09-05T11:12:27.293Z,74351.22
2022-09-05T11:15:02.608Z,74325.94
2022-09-05T11:17:46.736Z,74389.66
2022-09-05T11:20:38.721Z,74261.13
2022-09-05T11:23:38.811Z,74120.72
2022-09-05T11:26:18.521Z,74167.44
2022-09-05T11:29:00.808Z,74021.56
2022-09-05T11:34:28.454Z,73934.09
2022-09-05T11:39:59.039Z,73864.88
2022-09-05T11:40:04.609Z,73612.78
2022-09-05T11:41:09.794Z,73384.28
2022-09-05T11:44:24.571Z,73286.84
2022-09-05T11:47:43.641Z,73084.50
2022-09-05T11:50:48.934Z,73003.00
2022-09-05T11:53:25.261Z,72940.06
2022-09-05T11:56:09.162Z,72926.38
2022-09-05T11:59:05.330Z,72869.44
2022-09-05T12:01:57.000Z,72874.22
2022-09-05T12:07:57.429Z,72716.66
2022-09-05T12:10:47.116Z,72690.75
2022-09-05T12:13:35.210Z,72648.81
2022-09-05T12:16:27.960Z,72575.06
2022-09-05T12:19:19.679Z,72572.69
2022-09-05T12:22:09.044Z,72570.38
2022-09-05T12:25:25.733Z,72574.22
2022-09-05T12:27:52.510Z,72490.81
2022-09-05T12:30:53.095Z,72468.63
2022-09-05T12:36:01.834Z,72486.09
2022-09-05T12:40:15.696Z,72445.22
2022-09-05T12:41:39.146Z,72462.59
2022-09-05T12:41:40.880Z,72734.69
2022-09-05T12:43:49.688Z,72511.56
2022-09-05T12:45:47.607Z,72506.63
2022-09-05T12:48:39.849Z,72482.28
2022-09-05T12:51:45.303Z,72519.53
2022-09-05T12:54:24.474Z,72490.63
2022-09-05T13:01:25.765Z,72532.16
2022-09-05T13:03:13.927Z,72579.47
2022-09-05T13:03:29.870Z,72549.03
2022-09-05T13:06:19.405Z,72554.84
2022-09-05T13:09:21.542Z,72560.88
2022-09-05T13:14:56.207Z,72548.16
2022-09-05T13:15:20.120Z,72623.84
2022-09-05T13:18:11.588Z,72655.97
2022-09-05T13:20:51.492Z,72586.50
2022-09-05T13:23:53.252Z,72402.03
2022-09-05T13:26:36.225Z,72322.09
2022-09-05T13:29:17.878Z,72331.81
2022-09-05T13:38:03.552Z,72307.94
2022-09-05T13:38:15.039Z,72355.63
2022-09-05T13:38:16.166Z,72302.41
2022-09-05T13:40:58.216Z,72354.47
2022-09-05T13:43:32.201Z,72371.78
2022-09-05T13:46:11.102Z,72317.63
2022-09-05T13:52:38.013Z,72365.72
2022-09-05T13:55:14.016Z,72314.25
2022-09-05T13:58:07.375Z,72361.50
2022-09-05T14:00:40.267Z,72324.22
2022-09-05T14:03:31.795Z,72328.44
2022-09-05T14:07:43.973Z,72342.50
2022-09-05T14:10:28.587Z,72321.97
2022-09-05T14:13:19.738Z,72320.69
2022-09-05T14:15:59.959Z,72302.38
2022-09-05T14:18:54.549Z,72372.91
2022-09-05T14:21:26.888Z,72395.78
2022-09-05T14:23:58.748Z,72379.78
2022-09-05T14:26:51.234Z,72286.03
2022-09-05T14:29:29.039Z,72306.72
2022-09-05T14:37:37.071Z,72370.41
2022-09-05T14:37:53.461Z,72348.91
2022-09-05T14:39:25.524Z,72294.41
2022-09-05T14:42:07.380Z,72312.84
2022-09-05T14:45:23.000Z,72354.75
2022-09-05T14:48:13.271Z,72374.19
2022-09-05T14:50:49.414Z,72379.41
2022-09-05T14:57:48.519Z,72407.50
2022-09-05T15:02:44.276Z,72437.56
2022-09-05T15:02:53.942Z,72415.88
2022-09-05T15:05:41.013Z,72377.59
2022-09-05T15:08:42.561Z,72402.88
2022-09-05T15:12:24.408Z,72347.28
2022-09-05T15:14:08.898Z,72377.75
2022-09-05T15:16:45.759Z,72313.50
2022-09-05T15:20:07.306Z,72249.31
2022-09-05T15:22:47.903Z,72234.97
2022-09-05T15:25:25.141Z,72370.47
2022-09-05T15:27:53.613Z,72269.25
2022-09-05T15:30:35.802Z,72215.75
2022-09-05T15:33:28.981Z,72186.69
2022-09-05T15:35:58.643Z,72213.25
2022-09-05T15:38:37.908Z,72185.75
2022-09-05T15:41:31.739Z,72151.00
2022-09-05T15:44:09.554Z,72168.53
2022-09-05T15:46:51.404Z,72140.72
2022-09-05T15:49:37.312Z,72133.88
2022-09-05T15:52:17.834Z,72128.47
2022-09-05T15:55:10.772Z,72119.56
2022-09-05T15:57:46.711Z,72123.78
2022-09-05T16:00:51.254Z,72091.84
2022-09-05T16:05:17.891Z,72094.50
2022-09-05T16:10:33.647Z,72081.38
2022-09-05T16:10:34.103Z,72054.78
2022-09-05T16:12:27.743Z,72038.72
2022-09-05T16:15:30.045Z,72008.78
2022-09-05T16:23:13.075Z,71975.66
2022-09-05T16:23:28.978Z,71950.09
2022-09-05T16:24:18.561Z,71953.50
2022-09-05T16:27:06.241Z,71939.22
2022-09-05T16:29:42.172Z,71901.94
2022-09-05T16:32:26.087Z,71863.50
2022-09-05T16:35:18.232Z,71896.88
2022-09-05T16:38:12.944Z,71853.25
2022-09-05T16:40:53.961Z,71829.97
2022-09-05T16:43:34.448Z,71810.38
2022-09-05T16:46:34.029Z,71786.44
2022-09-05T16:49:38.959Z,71768.59
2022-09-05T16:52:17.782Z,71744.44
2022-09-05T16:54:53.923Z,71778.06
2022-09-05T16:57:30.304Z,71753.28
2022-09-05T16:59:57.915Z,71737.19
2022-09-05T17:02:44.247Z,71739.38
2022-09-05T17:05:32.407Z,71708.22
2022-09-05T17:08:29.110Z,71724.84
2022-09-05T17:11:13.846Z,71674.72
2022-09-05T17:14:10.763Z,71632.41
2022-09-05T17:17:23.485Z,71662.16
2022-09-05T17:20:06.750Z,71663.78
2022-09-05T17:26:26.395Z,71650.25
2022-09-05T17:29:33.946Z,71646.19
2022-09-05T17:29:50.487Z,71671.06
2022-09-05T17:32:04.458Z,71639.53
2022-09-05T17:35:17.109Z,71588.78
2022-09-05T17:38:28.084Z,71586.81
2022-09-05T17:41:11.960Z,71585.94
2022-09-05T17:43:41.016Z,71571.63
2022-09-05T17:46:25.599Z,71499.66
2022-09-05T17:49:17.949Z,71584.63
2022-09-05T17:51:50.925Z,71543.16
2022-09-05T17:54:50.075Z,71555.75
2022-09-05T17:57:29.555Z,71539.63
2022-09-05T18:00:07.026Z,71563.47
2022-09-05T18:02:57.018Z,71531.34
2022-09-05T18:06:09.791Z,71512.00
2022-09-05T18:08:45.703Z,71478.00
2022-09-05T18:11:27.423Z,71505.81
2022-09-05T18:14:24.486Z,71463.19
2022-09-05T18:17:36.482Z,71497.28
2022-09-05T18:19:45.959Z,71484.84
2022-09-05T18:22:39.500Z,71509.66
2022-09-05T18:25:28.177Z,71486.97
2022-09-05T18:28:12.818Z,71433.28
2022-09-05T18:30:40.127Z,71440.75
2022-09-05T18:33:33.298Z,71521.94
2022-09-05T18:35:59.549Z,71475.47
2022-09-05T18:38:51.574Z,71435.28
2022-09-05T18:41:22.119Z,71436.53
2022-09-05T18:44:12.196Z,71447.66
2022-09-05T18:46:53.292Z,71396.69
2022-09-05T18:50:25.361Z,71403.09
2022-09-05T18:52:34.089Z,71374.00
2022-09-05T18:56:10.914Z,71413.00
2022-09-05T18:58:10.871Z,71384.94
2022-09-05T19:00:46.654Z,71416.59
2022-09-05T19:03:28.815Z,71370.41
2022-09-05T19:06:34.644Z,71397.63
2022-09-05T19:09:09.808Z,71388.25
2022-09-05T19:12:33.276Z,71357.44
2022-09-05T19:15:08.312Z,71389.97
2022-09-05T19:17:47.530Z,71329.59
2022-09-05T19:20:56.407Z,71372.22
2022-09-05T19:23:32.183Z,71316.19
2022-09-05T19:26:09.659Z,71324.13
2022-09-05T19:36:52.816Z,71307.47
2022-09-05T19:36:53.005Z,71333.13
2022-09-05T19:37:23.845Z,71320.00
2022-09-05T19:37:41.248Z,71289.03
2022-09-05T19:47:01.844Z,71283.44
2022-09-05T19:47:35.921Z,71293.31
2022-09-05T19:47:51.473Z,71304.59
2022-09-05T19:49:12.929Z,71296.94
2022-09-05T19:51:41.519Z,71298.16
2022-09-05T19:54:25.952Z,71283.63
2022-09-05T19:57:03.218Z,71283.19
2022-09-05T19:59:34.342Z,71228.78
2022-09-05T20:02:04.671Z,71225.59
2022-09-05T20:04:38.769Z,71225.66
2022-09-05T20:07:19.187Z,71232.50
2022-09-05T20:09:49.644Z,71235.19
2022-09-05T20:12:29.757Z,71248.84
2022-09-05T20:14:57.929Z,71233.63
2022-09-05T20:17:32.172Z,71219.03
2022-09-05T20:20:08.652Z,71215.19
2022-09-05T20:22:49.782Z,71208.06
2022-09-05T20:25:40.691Z,71227.53
2022-09-05T20:28:11.519Z,71202.00
2022-09-05T20:30:45.705Z,71201.19
2022-09-05T20:33:28.535Z,71187.00
2022-09-05T20:43:08.992Z,71182.28
2022-09-05T20:43:23.647Z,71159.09
2022-09-05T20:43:36.452Z,71150.47
2022-09-05T20:44:50.647Z,71118.22
2022-09-05T20:50:58.281Z,71125.16
2022-09-05T20:54:23.018Z,71171.94
2022-09-05T20:54:25.929Z,71160.44
2022-09-05T20:56:30.843Z,71095.31
2022-09-05T20:58:59.199Z,71137.81
2022-09-05T21:01:27.865Z,71138.16
2022-09-05T21:04:05.533Z,71126.81
2022-09-05T21:06:41.311Z,71107.22
2022-09-05T21:09:13.131Z,71072.97
2022-09-05T21:11:41.217Z,71084.38
2022-09-05T21:14:08.866Z,71104.97
2022-09-05T21:16:49.220Z,71087.53
2022-09-05T21:19:32.490Z,71087.53
2022-09-05T21:22:09.689Z,71102.41
2022-09-05T21:24:36.835Z,71059.94
2022-09-05T21:27:25.127Z,71087.00
2022-09-05T21:29:58.657Z,71092.81
2022-09-05T21:32:38.019Z,71040.38
2022-09-05T21:35:34.414Z,71069.22
2022-09-05T21:37:58.657Z,71024.03
2022-09-05T21:40:25.789Z,71069.53
2022-09-05T21:47:35.833Z,71053.47
2022-09-05T21:47:48.364Z,71045.19
2022-09-05T21:48:28.981Z,71056.16
2022-09-05T21:51:02.566Z,71074.88
2022-09-05T21:56:45.293Z,71019.03
2022-09-05T21:59:26.037Z,71057.66
2022-09-05T21:59:46.083Z,71065.34
2022-09-05T22:02:16.538Z,71058.56
2022-09-05T22:04:44.220Z,71074.91
2022-09-05T22:07:21.625Z,71037.22
2022-09-05T22:10:03.382Z,71043.25
2022-09-05T22:12:35.837Z,71014.22
2022-09-05T22:15:28.816Z,71003.63
2022-09-05T22:18:17.299Z,71027.44
2022-09-05T22:21:01.382Z,70975.44
2022-09-05T22:23:44.297Z,70984.75
2022-09-05T22:26:13.354Z,70989.84
2022-09-05T22:28:48.774Z,70989.31
2022-09-05T22:31:19.912Z,71012.19
2022-09-05T22:33:50.955Z,71005.38
2022-09-05T22:36:18.550Z,70985.44
2022-09-05T22:38:47.573Z,70999.44
2022-09-05T22:41:14.961Z,71015.22
2022-09-05T22:43:42.112Z,70993.63
2022-09-05T22:46:11.140Z,70945.53
2022-09-05T22:48:38.460Z,70952.09
2022-09-05T22:51:06.377Z,70971.13
2022-09-05T22:53:33.578Z,70969.38
2022-09-05T22:56:06.457Z,70942.66
2022-09-05T22:58:44.881Z,70983.53
2022-09-05T23:01:12.695Z,70959.78
2022-09-05T23:03:39.731Z,70940.38
2022-09-05T23:06:10.163Z,70985.88
2022-09-05T23:08:37.309Z,70964.28
2022-09-05T23:11:16.819Z,70931.53
2022-09-05T23:13:44.800Z,70978.72
2022-09-05T23:16:12.552Z,70953.81
2022-09-05T23:18:40.082Z,70976.69
2022-09-05T23:21:11.209Z,70947.28
2022-09-05T23:23:41.242Z,70971.03
2022-09-05T23:26:13.139Z,70943.44
2022-09-05T23:28:43.361Z,70969.31
2022-09-05T23:31:12.290Z,70976.47
2022-09-05T23:33:41.920Z,70969.00
2022-09-05T23:36:13.806Z,70953.66
2022-09-05T23:38:44.598Z,70929.84
2022-09-05T23:41:14.985Z,70941.66
2022-09-05T23:43:43.087Z,70884.09
2022-09-05T23:46:10.203Z,70913.81
2022-09-05T23:48:39.840Z,70941.13
2022-09-05T23:51:10.380Z,70955.34
2022-09-05T23:53:38.273Z,70912.59
2022-09-05T23:56:09.548Z,70905.47
2022-09-05T23:58:37.714Z,70934.00
